createdAt,value
2022-12-13T00:01:45.511Z,98839.06
2022-12-13T00:04:13.886Z,98837.84
2022-12-13T00:06:41.193Z,98819.19
2022-12-13T00:09:08.926Z,98838.66
2022-12-13T00:11:36.113Z,98838.91
2022-12-13T00:14:03.212Z,98846.06
2022-12-13T00:16:30.306Z,98830.13
2022-12-13T00:18:59.483Z,98842.03
2022-12-13T00:21:31.955Z,98841.81
2022-12-13T00:24:00.467Z,98837.00
2022-12-13T00:26:30.254Z,98843.56
2022-12-13T00:29:02.048Z,98840.66
2022-12-13T00:34:19.423Z,98835.28
2022-12-13T00:36:46.892Z,98840.84
2022-12-13T00:39:16.732Z,98851.34
2022-12-13T00:41:45.183Z,98842.53
2022-12-13T00:44:13.793Z,98843.94
2022-12-13T00:46:41.704Z,98843.63
2022-12-13T00:49:11.105Z,98837.59
2022-12-13T00:51:38.559Z,98833.72
2022-12-13T00:54:05.768Z,98830.72
2022-12-13T00:56:34.049Z,98841.81
2022-12-13T00:59:01.159Z,98838.59
2022-12-13T01:01:30.869Z,98836.41
2022-12-13T01:03:59.799Z,98827.81
2022-12-13T01:06:35.867Z,98836.31
2022-12-13T01:09:05.564Z,98833.13
2022-12-13T01:11:32.581Z,98829.28
2022-12-13T01:13:59.609Z,98833.44
2022-12-13T01:16:26.730Z,98830.09
2022-12-13T01:18:53.855Z,98825.41
2022-12-13T01:21:23.800Z,98817.66
2022-12-13T01:23:51.087Z,98826.72
2022-12-13T01:26:20.903Z,98827.41
2022-12-13T01:28:49.205Z,98828.97
2022-12-13T01:31:20.227Z,98830.63
2022-12-13T01:33:47.993Z,98833.72
2022-12-13T01:36:18.749Z,98833.53
2022-12-13T01:38:45.864Z,98833.81
2022-12-13T01:41:18.578Z,98823.34
2022-12-13T01:43:48.491Z,98825.47
2022-12-13T01:46:17.565Z,98828.50
2022-12-13T01:49:19.562Z,98835.31
2022-12-13T01:52:02.078Z,98834.97
2022-12-13T01:54:36.476Z,98832.56
2022-12-13T01:57:09.011Z,98828.44
2022-12-13T01:59:38.566Z,98816.69
2022-12-13T02:02:07.332Z,98835.09
2022-12-13T02:04:49.206Z,98841.91
2022-12-13T02:07:23.270Z,98832.06
2022-12-13T02:09:57.418Z,98823.81
2022-12-13T02:12:29.353Z,98840.56
2022-12-13T02:15:00.448Z,98841.75
2022-12-13T02:17:53.220Z,98830.06
2022-12-13T02:20:49.608Z,98836.91
2022-12-13T02:23:22.303Z,98845.63
2022-12-13T02:25:52.146Z,98850.91
2022-12-13T02:28:46.967Z,98840.59
2022-12-13T02:31:19.306Z,98836.63
2022-12-13T02:34:25.329Z,98831.88
2022-12-13T02:37:18.570Z,98828.72
2022-12-13T02:39:57.840Z,98818.53
2022-12-13T02:42:39.876Z,98840.53
2022-12-13T02:45:20.114Z,98827.13
2022-12-13T02:47:49.855Z,98844.06
2022-12-13T02:50:17.344Z,98848.59
2022-12-13T02:52:46.797Z,98846.28
2022-12-13T02:55:16.966Z,98822.22
2022-12-13T02:57:45.573Z,98848.78
2022-12-13T03:00:20.369Z,98849.22
2022-12-13T03:03:01.951Z,98846.38
2022-12-13T03:06:07.230Z,98862.78
2022-12-13T03:08:47.544Z,98854.78
2022-12-13T03:11:16.656Z,98853.75
2022-12-13T03:14:04.648Z,98855.13
2022-12-13T03:16:43.947Z,98852.34
2022-12-13T03:19:13.771Z,98856.41
2022-12-13T03:21:48.091Z,98849.69
2022-12-13T03:24:21.523Z,98848.84
2022-12-13T03:26:50.179Z,98837.53
2022-12-13T03:29:24.386Z,98850.16
2022-12-13T03:31:53.124Z,98852.75
2022-12-13T03:34:22.814Z,98843.56
2022-12-13T03:36:52.843Z,98850.28
2022-12-13T03:39:20.632Z,98843.69
2022-12-13T03:41:48.791Z,98843.19
2022-12-13T03:44:16.071Z,98842.69
2022-12-13T03:46:43.128Z,98842.47
2022-12-13T03:49:15.233Z,98846.91
2022-12-13T03:51:44.019Z,98829.34
2022-12-13T03:54:11.088Z,98834.03
2022-12-13T03:56:38.036Z,98844.94
2022-12-13T03:59:05.022Z,98836.66
2022-12-13T04:01:32.063Z,98850.69
2022-12-13T04:03:59.092Z,98842.41
2022-12-13T04:06:31.240Z,98845.72
2022-12-13T04:09:00.340Z,98841.88
2022-12-13T04:11:46.032Z,98855.84
2022-12-13T04:14:22.612Z,98859.13
2022-12-13T04:16:51.479Z,98836.56
2022-12-13T04:19:23.037Z,98829.63
2022-12-13T04:21:52.099Z,98851.31
2022-12-13T04:24:19.152Z,98840.59
2022-12-13T04:26:46.227Z,98847.44
2022-12-13T04:29:13.273Z,98849.09
2022-12-13T04:31:40.961Z,98855.47
2022-12-13T04:34:08.000Z,98855.28
2022-12-13T04:36:35.346Z,98859.13
2022-12-13T04:39:03.870Z,98855.84
2022-12-13T04:41:54.371Z,98860.78
2022-12-13T04:44:28.687Z,98861.16
2022-12-13T04:47:00.783Z,98851.38
2022-12-13T04:49:30.034Z,98859.41
2022-12-13T04:52:01.251Z,98847.88
2022-12-13T04:54:36.063Z,98865.41
2022-12-13T04:57:10.830Z,98863.88
2022-12-13T04:59:38.609Z,98857.84
2022-12-13T05:02:07.223Z,98847.69
2022-12-13T05:04:35.871Z,98854.22
2022-12-13T05:07:03.250Z,98873.72
2022-12-13T05:09:30.971Z,98868.50
2022-12-13T05:12:01.786Z,98865.78
2022-12-13T05:14:31.641Z,98866.28
2022-12-13T05:16:59.806Z,98864.09
2022-12-13T05:19:31.607Z,98859.72
2022-12-13T05:22:01.501Z,98854.69
2022-12-13T05:24:31.165Z,98845.41
2022-12-13T05:26:58.914Z,98866.00
2022-12-13T05:29:27.673Z,98862.66
2022-12-13T05:31:54.763Z,98872.00
2022-12-13T05:34:21.903Z,98858.56
2022-12-13T05:36:48.913Z,98861.56
2022-12-13T05:39:29.276Z,98863.22
2022-12-13T05:42:02.083Z,98879.25
2022-12-13T05:44:31.478Z,98876.41
2022-12-13T05:46:59.124Z,98862.63
2022-12-13T05:49:29.345Z,98877.69
2022-12-13T05:51:56.341Z,98874.81
2022-12-13T05:54:23.501Z,98866.78
2022-12-13T05:56:50.521Z,98874.47
2022-12-13T05:59:17.587Z,98872.66
2022-12-13T06:01:44.551Z,98882.88
2022-12-13T06:04:13.161Z,98884.09
2022-12-13T06:06:51.171Z,98873.06
2022-12-13T06:09:19.211Z,98869.22
2022-12-13T06:11:46.298Z,98861.66
2022-12-13T06:14:22.492Z,98868.44
2022-12-13T06:16:53.815Z,98878.75
2022-12-13T06:19:22.239Z,98876.81
2022-12-13T06:21:53.580Z,98870.88
2022-12-13T06:24:22.619Z,98871.91
2022-12-13T06:26:50.914Z,98880.22
2022-12-13T06:29:22.672Z,98871.91
2022-12-13T06:32:01.722Z,98864.09
2022-12-13T06:34:35.805Z,98884.47
2022-12-13T06:37:05.641Z,98886.22
2022-12-13T06:39:33.831Z,98868.13
2022-12-13T06:42:02.693Z,98893.09
2022-12-13T06:44:29.676Z,98889.22
2022-12-13T06:47:10.619Z,98899.31
2022-12-13T06:49:40.794Z,98900.81
2022-12-13T06:52:12.912Z,98908.94
2022-12-13T06:54:40.323Z,98923.00
2022-12-13T06:57:07.326Z,98922.88
2022-12-13T06:59:34.368Z,98918.06
2022-12-13T07:02:03.500Z,98933.44
2022-12-13T07:04:31.975Z,98928.72
2022-12-13T07:07:01.356Z,98920.16
2022-12-13T07:09:30.968Z,98927.94
2022-12-13T07:11:58.888Z,98943.56
2022-12-13T07:14:26.089Z,98938.75
2022-12-13T07:16:56.622Z,98949.09
2022-12-13T07:19:28.326Z,98939.72
2022-12-13T07:22:05.960Z,98949.34
2022-12-13T07:24:34.569Z,98944.34
2022-12-13T07:27:02.440Z,98947.66
2022-12-13T07:29:29.393Z,98941.31
2022-12-13T07:32:01.496Z,98946.91
2022-12-13T07:34:30.116Z,98948.16
2022-12-13T07:36:57.160Z,98950.72
2022-12-13T07:39:28.606Z,98959.44
2022-12-13T07:41:56.449Z,98957.22
2022-12-13T07:44:24.707Z,98954.53
2022-12-13T07:46:52.024Z,98958.47
2022-12-13T07:49:19.222Z,98967.44
2022-12-13T07:51:47.962Z,98960.25
2022-12-13T07:54:15.148Z,98951.22
2022-12-13T07:56:42.184Z,98958.69
2022-12-13T07:59:10.671Z,98952.38
2022-12-13T08:01:38.000Z,98965.84
2022-12-13T08:04:05.108Z,98938.94
2022-12-13T08:06:36.925Z,98941.88
2022-12-13T08:09:05.154Z,98964.09
2022-12-13T08:11:32.188Z,98964.66
2022-12-13T08:13:59.332Z,98962.44
2022-12-13T08:16:29.341Z,98979.19
2022-12-13T08:19:04.369Z,98984.03
2022-12-13T08:21:57.221Z,98978.13
2022-12-13T08:24:29.328Z,98983.03
2022-12-13T08:27:01.583Z,98979.97
2022-12-13T08:29:33.967Z,98972.03
2022-12-13T08:32:08.739Z,98984.03
2022-12-13T08:34:35.868Z,98990.31
2022-12-13T08:37:04.144Z,98986.72
2022-12-13T08:39:36.720Z,98986.25
2022-12-13T08:42:16.783Z,98986.25
2022-12-13T08:44:47.308Z,98979.91
2022-12-13T08:47:23.416Z,98981.66
2022-12-13T08:50:02.108Z,98989.03
2022-12-13T08:52:38.959Z,98975.84
2022-12-13T08:55:12.508Z,99001.63
2022-12-13T08:57:41.504Z,99003.06
2022-12-13T09:00:11.686Z,99007.47
2022-12-13T09:02:39.206Z,99013.56
2022-12-13T09:05:08.091Z,99022.00
2022-12-13T09:07:36.405Z,99023.59
2022-12-13T09:10:26.721Z,99024.28
2022-12-13T09:13:01.044Z,99024.44
2022-12-13T09:15:33.857Z,99021.13
2022-12-13T09:18:05.071Z,99029.94
2022-12-13T09:20:41.661Z,99024.56
2022-12-13T09:23:13.842Z,99018.78
2022-12-13T09:26:11.337Z,99024.47
2022-12-13T09:28:42.572Z,99033.09
2022-12-13T09:31:15.934Z,99035.44
2022-12-13T09:33:44.001Z,99048.34
2022-12-13T09:36:14.380Z,99038.72
2022-12-13T09:38:41.587Z,99046.13
2022-12-13T09:41:30.765Z,99046.66
2022-12-13T09:44:31.633Z,99045.88
2022-12-13T09:47:04.427Z,99043.28
2022-12-13T09:49:43.439Z,99035.13
2022-12-13T09:52:22.804Z,99045.56
2022-12-13T09:54:56.003Z,99038.22
2022-12-13T09:57:31.477Z,99040.16
2022-12-13T10:00:13.612Z,99039.88
2022-12-13T10:02:52.520Z,99052.25
2022-12-13T10:05:40.134Z,99055.84
2022-12-13T10:08:17.268Z,99059.91
2022-12-13T10:10:44.508Z,99052.16
2022-12-13T10:13:16.788Z,99043.34
2022-12-13T10:15:48.905Z,99055.56
2022-12-13T10:18:35.580Z,99056.94
2022-12-13T10:21:11.838Z,99058.09
2022-12-13T10:24:15.085Z,99071.53
2022-12-13T10:26:26.305Z,99075.88
2022-12-13T10:29:03.807Z,99080.84
2022-12-13T10:31:42.857Z,99080.94
2022-12-13T10:34:30.616Z,99082.47
2022-12-13T10:36:59.755Z,99082.25
2022-12-13T10:39:37.832Z,99083.31
2022-12-13T10:42:12.995Z,99078.78
2022-12-13T10:44:50.096Z,99080.50
2022-12-13T10:47:22.023Z,99069.94
2022-12-13T10:50:01.408Z,99086.91
2022-12-13T10:52:32.070Z,99097.53
2022-12-13T10:55:04.634Z,99094.25
2022-12-13T10:57:56.976Z,99102.78
2022-12-13T11:00:50.150Z,99089.56
2022-12-13T11:03:32.949Z,99092.66
2022-12-13T11:06:18.191Z,99094.03
2022-12-13T11:08:45.464Z,99098.59
2022-12-13T11:11:13.450Z,99095.00
2022-12-13T11:13:52.367Z,99093.94
2022-12-13T11:16:25.404Z,99095.69
2022-12-13T11:18:57.340Z,99101.03
2022-12-13T11:21:30.364Z,99112.56
2022-12-13T11:24:01.930Z,99106.25
2022-12-13T11:26:33.057Z,99116.88
2022-12-13T11:29:12.540Z,99106.16
2022-12-13T11:32:11.154Z,99094.34
2022-12-13T11:35:09.384Z,99114.41
2022-12-13T11:37:48.579Z,99129.69
2022-12-13T11:40:23.169Z,99126.84
2022-12-13T11:42:59.247Z,99130.53
2022-12-13T11:45:32.022Z,99139.72
2022-12-13T11:48:25.190Z,99139.31
2022-12-13T11:50:56.727Z,99137.81
2022-12-13T11:53:46.545Z,99147.88
2022-12-13T11:56:24.043Z,99149.22
2022-12-13T11:59:20.814Z,99148.38
2022-12-13T12:02:20.141Z,99158.00
2022-12-13T12:04:59.657Z,99160.78
2022-12-13T12:07:53.179Z,99165.72
2022-12-13T12:10:31.175Z,99176.72
2022-12-13T12:13:07.760Z,99176.16
2022-12-13T12:15:47.227Z,99192.38
2022-12-13T12:18:16.657Z,99190.72
2022-12-13T12:21:16.492Z,99194.44
2022-12-13T12:24:24.130Z,99201.00
2022-12-13T12:27:14.154Z,99199.66
2022-12-13T12:30:02.138Z,99194.06
2022-12-13T12:32:43.994Z,99190.81
2022-12-13T12:35:46.905Z,99186.31
2022-12-13T12:38:45.540Z,99177.94
2022-12-13T12:41:26.083Z,99179.22
2022-12-13T12:44:34.912Z,99190.13
2022-12-13T12:50:25.262Z,99189.66
2022-12-13T12:53:11.549Z,99180.72
2022-12-13T12:56:08.339Z,99171.88
2022-12-13T12:58:51.428Z,99176.53
2022-12-13T13:02:15.978Z,99175.50
2022-12-13T13:04:52.753Z,99168.13
2022-12-13T13:07:39.577Z,99168.44
2022-12-13T13:10:16.226Z,99165.81
2022-12-13T13:12:52.928Z,99160.47
2022-12-13T13:15:41.632Z,99172.03
2022-12-13T13:18:48.658Z,99175.34
2022-12-13T13:21:24.388Z,99174.94
2022-12-13T13:24:09.496Z,99162.97
2022-12-13T13:26:43.007Z,99171.75
2022-12-13T13:29:26.726Z,99173.84
2022-12-13T13:32:05.289Z,99173.28
2022-12-13T13:34:54.081Z,99170.94
2022-12-13T13:37:45.497Z,99170.13
2022-12-13T13:40:13.583Z,99177.81
2022-12-13T13:43:10.289Z,99165.72
2022-12-13T13:45:49.682Z,99171.25
2022-12-13T13:48:42.539Z,99170.41
2022-12-13T13:51:25.278Z,99184.97
2022-12-13T13:54:28.811Z,99166.72
2022-12-13T13:58:07.569Z,99173.72
2022-12-13T14:00:28.879Z,99181.94
2022-12-13T14:03:34.784Z,99181.00
2022-12-13T14:06:14.665Z,99175.06
2022-12-13T14:08:59.383Z,99186.91
2022-12-13T14:11:29.104Z,99187.72
2022-12-13T14:15:01.401Z,99177.81
2022-12-13T14:18:21.642Z,99173.97
2022-12-13T14:20:51.966Z,99174.50
2022-12-13T14:23:35.886Z,99178.63
2022-12-13T14:26:20.248Z,99178.63
2022-12-13T14:28:54.861Z,99180.09
2022-12-13T14:31:28.033Z,99180.19
2022-12-13T14:33:59.492Z,99177.72
2022-12-13T14:36:36.356Z,99166.06
2022-12-13T14:39:07.014Z,99168.59
2022-12-13T14:41:56.767Z,99156.84
2022-12-13T14:44:28.297Z,99167.47
2022-12-13T14:46:59.118Z,99156.75
2022-12-13T14:49:28.222Z,99165.16
2022-12-13T14:52:03.016Z,99172.00
2022-12-13T14:54:41.019Z,99171.66
2022-12-13T14:57:16.416Z,99176.53
2022-12-13T14:59:52.236Z,99175.19
2022-12-13T15:02:31.071Z,99176.53
2022-12-13T15:05:05.089Z,99165.34
2022-12-13T15:07:41.508Z,99172.81
2022-12-13T15:10:50.093Z,99167.34
2022-12-13T15:13:38.155Z,99177.13
2022-12-13T15:16:27.420Z,99175.25
2022-12-13T15:19:14.563Z,99176.09
2022-12-13T15:22:15.055Z,99176.13
2022-12-13T15:24:49.896Z,99180.94
2022-12-13T15:27:27.223Z,99179.66
2022-12-13T15:29:55.030Z,99176.50
2022-12-13T15:32:23.389Z,99174.06
2022-12-13T15:34:51.639Z,99166.81
2022-12-13T15:37:28.203Z,99191.44
2022-12-13T15:40:01.113Z,99193.59
2022-12-13T15:42:35.867Z,99182.97
2022-12-13T15:45:06.332Z,99185.09
2022-12-13T15:47:33.863Z,99195.22
2022-12-13T15:50:04.581Z,99188.06
2022-12-13T15:52:31.663Z,99185.06
2022-12-13T15:55:08.479Z,99190.25
2022-12-13T15:57:58.796Z,99161.22
2022-12-13T16:00:29.272Z,99182.31
2022-12-13T16:03:19.014Z,99168.66
2022-12-13T16:05:52.134Z,99181.63
2022-12-13T16:08:30.536Z,99183.28
2022-12-13T16:10:58.513Z,99180.13
2022-12-13T16:13:37.333Z,99177.78
2022-12-13T16:16:29.520Z,99173.81
2022-12-13T16:18:58.772Z,99175.88
2022-12-13T16:21:29.132Z,99174.22
2022-12-13T16:23:56.369Z,99169.84
2022-12-13T16:26:26.354Z,99157.72
2022-12-13T16:28:57.807Z,99170.72
2022-12-13T16:31:35.723Z,99170.59
2022-12-13T16:34:07.143Z,99165.78
2022-12-13T16:36:34.549Z,99160.31
2022-12-13T16:39:02.092Z,99158.13
2022-12-13T16:41:29.330Z,99167.69
2022-12-13T16:44:02.595Z,99167.97
2022-12-13T16:47:14.502Z,99158.59
2022-12-13T16:49:21.252Z,99161.41
2022-12-13T16:51:49.245Z,99158.72
2022-12-13T16:54:18.560Z,99152.66
2022-12-13T16:56:45.970Z,99155.13
2022-12-13T16:59:18.724Z,99154.88
2022-12-13T17:01:46.696Z,99153.63
2022-12-13T17:04:20.997Z,99152.56
2022-12-13T17:06:50.629Z,99150.59
2022-12-13T17:09:18.540Z,99150.44
2022-12-13T17:11:45.894Z,99145.03
2022-12-13T17:14:13.006Z,99137.50
2022-12-13T17:16:40.186Z,99132.00
2022-12-13T17:19:07.221Z,99128.59
2022-12-13T17:21:35.003Z,99129.34
2022-12-13T17:24:03.174Z,99113.41
2022-12-13T17:26:30.559Z,99127.28
2022-12-13T17:28:57.851Z,99112.72
2022-12-13T17:31:28.032Z,99129.44
2022-12-13T17:33:59.303Z,99124.59
2022-12-13T17:36:27.047Z,99128.66
2022-12-13T17:38:54.181Z,99111.31
2022-12-13T17:41:21.276Z,99114.38
2022-12-13T17:43:48.536Z,99091.19
2022-12-13T17:46:18.614Z,99105.28
2022-12-13T17:48:45.796Z,99109.25
2022-12-13T17:51:14.178Z,99102.63
2022-12-13T17:53:43.036Z,99101.38
2022-12-13T17:56:12.851Z,99098.13
2022-12-13T17:58:40.314Z,99094.41
2022-12-13T18:01:26.762Z,99099.66
2022-12-13T18:03:55.777Z,99081.72
2022-12-13T18:06:25.431Z,99089.91
2022-12-13T18:08:52.723Z,99092.75
2022-12-13T18:11:32.956Z,99089.81
2022-12-13T18:14:02.928Z,99086.72
2022-12-13T18:16:36.235Z,99083.28
2022-12-13T18:19:06.249Z,99061.16
2022-12-13T18:21:33.604Z,99074.22
2022-12-13T18:24:01.161Z,99057.91
2022-12-13T18:26:28.518Z,99049.56
2022-12-13T18:28:55.702Z,99065.63
2022-12-13T18:31:24.664Z,99036.66
2022-12-13T18:33:54.116Z,99048.53
2022-12-13T18:36:23.676Z,99039.03
2022-12-13T18:38:51.456Z,99043.41
2022-12-13T18:41:24.386Z,99038.84
2022-12-13T18:44:03.530Z,99035.63
2022-12-13T18:46:33.442Z,99025.47
2022-12-13T18:49:01.455Z,99016.63
2022-12-13T18:51:28.623Z,99025.97
2022-12-13T18:53:56.377Z,99041.00
2022-12-13T18:56:24.232Z,99033.13
2022-12-13T18:58:52.345Z,99035.53
2022-12-13T19:01:20.025Z,99024.81
2022-12-13T19:03:48.943Z,99017.44
2022-12-13T19:06:18.942Z,99018.16
2022-12-13T19:08:53.737Z,99020.78
2022-12-13T19:11:24.975Z,99021.88
2022-12-13T19:13:56.954Z,99012.53
2022-12-13T19:16:24.862Z,98996.13
2022-12-13T19:18:52.313Z,99009.94
2022-12-13T19:21:21.969Z,99013.09
2022-12-13T19:23:56.422Z,99002.88
2022-12-13T19:26:25.742Z,98983.97
2022-12-13T19:28:52.909Z,98991.81
2022-12-13T19:31:21.347Z,98995.78
2022-12-13T19:33:51.591Z,98980.94
2022-12-13T19:36:18.650Z,98961.50
2022-12-13T19:38:45.876Z,98982.81
2022-12-13T19:41:16.488Z,98987.28
2022-12-13T19:43:47.763Z,98981.50
2022-12-13T19:46:20.104Z,98972.31
2022-12-13T19:48:47.968Z,98978.03
2022-12-13T19:51:15.542Z,98980.91
2022-12-13T19:53:42.653Z,98972.88
2022-12-13T19:56:14.256Z,98978.78
2022-12-13T19:58:41.354Z,98971.72
2022-12-13T20:01:08.772Z,98951.53
2022-12-13T20:03:42.101Z,98974.75
2022-12-13T20:06:16.073Z,98971.72
2022-12-13T20:08:43.679Z,98959.94
2022-12-13T20:11:14.415Z,98978.44
2022-12-13T20:13:41.787Z,98983.03
2022-12-13T20:16:14.714Z,98980.44
2022-12-13T20:18:41.859Z,98963.72
2022-12-13T20:21:12.959Z,98964.53
2022-12-13T20:23:49.068Z,98954.19
2022-12-13T20:26:19.918Z,98957.78
2022-12-13T20:28:47.530Z,98980.03
2022-12-13T20:31:18.359Z,98973.41
2022-12-13T20:33:45.716Z,98952.78
2022-12-13T20:36:24.166Z,98958.16
2022-12-13T20:38:58.102Z,98940.97
2022-12-13T20:41:27.690Z,98949.09
2022-12-13T20:43:57.136Z,98939.69
2022-12-13T20:46:25.289Z,98931.28
2022-12-13T20:48:53.465Z,98931.00
2022-12-13T20:51:24.019Z,98925.59
2022-12-13T20:53:52.431Z,98925.22
2022-12-13T20:56:25.195Z,98924.81
2022-12-13T20:58:52.413Z,98934.09
2022-12-13T21:01:25.476Z,98929.22
2022-12-13T21:03:56.692Z,98905.50
2022-12-13T21:06:24.027Z,98924.66
2022-12-13T21:08:51.199Z,98922.75
2022-12-13T21:11:32.934Z,98903.88
2022-12-13T21:14:23.172Z,98907.22
2022-12-13T21:16:53.607Z,98908.19
2022-12-13T21:19:23.822Z,98913.78
2022-12-13T21:21:51.588Z,98906.06
2022-12-13T21:24:20.270Z,98906.13
2022-12-13T21:26:47.891Z,98910.66
2022-12-13T21:29:16.443Z,98915.81
2022-12-13T21:31:48.873Z,98911.75
2022-12-13T21:34:18.029Z,98907.22
2022-12-13T21:36:47.631Z,98913.94
2022-12-13T21:39:17.596Z,98898.47
2022-12-13T21:41:44.955Z,98895.72
2022-12-13T21:44:14.202Z,98891.56
2022-12-13T21:47:10.862Z,98869.94
2022-12-13T21:49:29.111Z,98873.97
2022-12-13T21:51:56.259Z,98863.56
2022-12-13T21:54:23.267Z,98867.16
2022-12-13T21:57:08.984Z,98859.13
2022-12-13T21:59:36.021Z,98839.88
2022-12-13T22:02:12.210Z,98864.13
2022-12-13T22:04:43.695Z,98865.00
2022-12-13T22:07:14.015Z,98864.22
2022-12-13T22:09:41.492Z,98832.09
2022-12-13T22:12:20.393Z,98840.47
2022-12-13T22:14:47.909Z,98829.34
2022-12-13T22:17:15.054Z,98838.00
2022-12-13T22:19:42.121Z,98819.16
2022-12-13T22:22:09.318Z,98829.13
2022-12-13T22:24:36.358Z,98833.56
2022-12-13T22:27:03.999Z,98821.03
2022-12-13T22:29:31.020Z,98831.25
2022-12-13T22:31:58.080Z,98828.75
2022-12-13T22:34:25.180Z,98816.47
2022-12-13T22:36:52.822Z,98813.41
2022-12-13T22:39:22.255Z,98818.66
2022-12-13T22:41:50.928Z,98819.38
2022-12-13T22:44:20.477Z,98798.66
2022-12-13T22:46:48.053Z,98806.13
2022-12-13T22:49:15.455Z,98808.72
2022-12-13T22:51:42.556Z,98802.09
2022-12-13T22:54:09.655Z,98797.41
2022-12-13T22:56:37.052Z,98804.31
2022-12-13T22:59:07.186Z,98793.72
2022-12-13T23:01:37.554Z,98778.66
2022-12-13T23:04:06.446Z,98785.56
2022-12-13T23:06:36.893Z,98766.66
2022-12-13T23:09:11.461Z,98753.97
2022-12-13T23:11:57.144Z,98752.13
2022-12-13T23:14:33.116Z,98742.75
2022-12-13T23:17:02.365Z,98745.00
2022-12-13T23:19:50.127Z,98728.72
2022-12-13T23:22:17.276Z,98722.97
2022-12-13T23:24:44.284Z,98722.06
2022-12-13T23:27:11.331Z,98722.34
2022-12-13T23:29:38.609Z,98721.72
2022-12-13T23:32:05.830Z,98727.09
2022-12-13T23:34:33.063Z,98710.88
2022-12-13T23:37:00.123Z,98707.38
2022-12-13T23:39:27.144Z,98683.16
2022-12-13T23:41:54.152Z,98696.91
2022-12-13T23:44:21.248Z,98708.34
2022-12-13T23:46:49.113Z,98692.53
2022-12-13T23:49:17.536Z,98688.63
2022-12-13T23:51:44.889Z,98687.69
2022-12-13T23:54:16.511Z,98681.59
2022-12-13T23:56:43.831Z,98686.34
2022-12-13T23:59:11.428Z,98669.53
